Terminal Aerodrome Forecast
Issued by NWS Upton, NY

Home | Current Version | Previous Version | Text Only | Print | Product List | Glossary On
Versions: 1 2 3 4 5 6 7 8 9 10 11 12 13 14 15 16 17 18 19 20 21 22 23 24 25 26 27 28 29 30 31 32 33 34 35 36 37 38 39 40 41 42 43 44 45 46 47 48 49 50
000
FTUS41 KOKX 271123
TAFLGA
TAF
KLGA 271123Z 2712/2818 18005KT 2SM BR OVC004
     FM271300 14005KT P6SM BKN007 BKN015
     FM271600 13007KT P6SM SCT015 BKN250
     FM280100 16006KT P6SM FEW007 BKN015 BKN250
     FM280500 16005KT 5SM BR BKN007 OVC015
     FM280900 16005KT 2SM BR OVC004
     FM281500 15009KT 4SM BR OVC007 PROB30 2816/2818 4SM -DZ OVC007=

USA.gov is the U.S. government's official web portal to all federal, state and local government web resources and services.